88FD weather

Bethesda Memorial Hospital Heliport
Boynton Beach, Florida, United States

Public forecast

Using degrees Fahrenheit for public forecast. Weather courtesy of forecast.io.

METAR (pilot weather report)

Closest report is Boca Raton Airport, 7.8 nm (14.5 km) SSW. Retrieved 2019/06/25 00:47 UTC (38 minutes ago):

KBCT 250047Z 14004KT 9SM CLR 30/23 A3002

TAF (pilot weather forecast)

Forecast is more than 12 hours old.

Closest forecast is Palm Beach International Airport, 10.8 nm (20.1 km) N. Retrieved 2019/06/24 00:26 UTC (1 day ago):

TAF KPBI 242320Z 2500/2524 VRB03KT P6SM FEW030 SCT250 FM251300 28005KT P6SM FEW030 SCT060 FM251800 09010KT P6SM VCSH SCT035 BKN060